Hovedside
METAR-TAF:

METAR-TAF

Lufthavner :

Esbjerg, Danmark

Esbjerg lufthavn

breddegrad: 55-32N, lengdegrad: 008-34E, høyde over havet: 30 m

Gjeldene værobservasjon

Denne rapporten ble laget for 35 minutter siden, klokken 18:20 UTC
Vind 5 kt fra Øst
Temperatur 14°C
Luftfuktighet 88%
Trykk 1022 hPa
Sikt 10 km eller mer
lette regnbyger

METAR: EKEB 221820Z AUTO 10005KT 9999NDV -SHRA BKN029/// OVC067/// 14/12 Q1022

Tid: 20:55 (18:55 UTC)

Varsel

Denne rapporten ble laget for 1 time og 34 minutter siden, klokken 17:21 UTC
Varsel gyldig fra 22. klokken 18 UTC til 22. klokken 22 UTC
Vind 5 kt fra Øst
Sikt 10 km eller mer
Brutte skyer i en høyde av 2500 ft
Midlertidig
fra 22. klokken 18 UTC til 22. klokken 22 UTC
Brutte skyer i en høyde av 1200 ft

TAF: EKEB 221721Z 2218/2222 09005KT 9999 BKN025 TEMPO 2218/2222 BKN012

Værobservasjoner og værvarsel for over 4000 flyplasser (METAR- og TAF-rapporter).

Tilgjengelige stasjoner er representert av de røde og gule prikkene på kartet.

Hold musepekeren over prikken for å se navnet på stasjonen.

Klikk så for å se værobservasjoner og -varsler.

For å forandre kartet kan du klikke på den grønne knappen med svart kryss for å zoome inn, på den grønne knappen med strek for å zoome ut, eller på de grønne pilene for å se tilstøtende kart.


METAR-TAF: